createdAt,value
2023-03-22T00:00:39.687Z,167.00
2023-03-22T00:01:43.223Z,167.00
2023-03-22T00:02:45.913Z,167.00
2023-03-22T00:03:50.244Z,166.33
2023-03-22T00:04:53.379Z,166.00
2023-03-22T00:05:59.009Z,166.00
2023-03-22T00:07:01.577Z,166.00
2023-03-22T00:08:07.105Z,167.00
2023-03-22T00:09:09.603Z,166.00
2023-03-22T00:10:12.195Z,166.00
2023-03-22T00:11:14.807Z,166.00
2023-03-22T00:12:17.295Z,166.00
2023-03-22T00:13:19.864Z,166.33
2023-03-22T00:14:22.363Z,167.00
2023-03-22T00:15:24.837Z,167.00
2023-03-22T00:16:27.475Z,166.33
2023-03-22T00:17:30.790Z,166.00
2023-03-22T00:18:33.375Z,165.50
2023-03-22T00:19:35.862Z,165.00
2023-03-22T00:20:40.392Z,164.00
2023-03-22T00:21:43.183Z,164.00
2023-03-22T00:22:46.221Z,163.83
2023-03-22T00:23:48.766Z,163.83
2023-03-22T00:24:51.262Z,164.00
2023-03-22T00:25:55.062Z,164.00
2023-03-22T00:26:58.673Z,164.00
2023-03-22T00:28:01.196Z,163.00
2023-03-22T00:29:03.945Z,163.00
2023-03-22T00:30:07.140Z,162.17
2023-03-22T00:31:10.759Z,162.00
2023-03-22T00:32:13.298Z,162.00
2023-03-22T00:33:15.934Z,162.00
2023-03-22T00:34:18.449Z,162.00
2023-03-22T00:35:21.063Z,162.00
2023-03-22T00:36:23.836Z,161.50
2023-03-22T00:37:27.932Z,161.00
2023-03-22T00:38:42.487Z,161.00
2023-03-22T00:39:45.956Z,161.00
2023-03-22T00:40:48.491Z,161.00
2023-03-22T00:41:51.528Z,161.00
2023-03-22T00:42:54.595Z,161.00
2023-03-22T00:43:57.195Z,161.00
2023-03-22T00:44:59.699Z,161.00
2023-03-22T00:46:02.781Z,161.00
2023-03-22T00:47:05.463Z,161.00
2023-03-22T00:48:09.682Z,160.50
2023-03-22T00:49:12.474Z,161.00
2023-03-22T00:50:14.978Z,161.00
2023-03-22T00:51:18.146Z,160.50
2023-03-22T00:52:21.629Z,160.00
2023-03-22T00:53:24.485Z,160.00
2023-03-22T00:54:27.000Z,160.00
2023-03-22T00:55:29.531Z,160.00
2023-03-22T00:56:34.026Z,160.00
2023-03-22T00:57:44.289Z,160.83
2023-03-22T00:58:46.815Z,159.83
2023-03-22T00:59:49.637Z,159.00
2023-03-22T01:00:52.189Z,158.00
2023-03-22T01:01:56.656Z,158.00
2023-03-22T01:03:04.720Z,157.50
2023-03-22T01:04:07.455Z,157.00
2023-03-22T01:05:15.733Z,157.00
2023-03-22T01:06:18.792Z,157.00
2023-03-22T01:07:24.071Z,157.00
2023-03-22T01:08:32.940Z,156.17
2023-03-22T01:09:35.687Z,156.00
2023-03-22T01:10:40.314Z,156.00
2023-03-22T01:11:43.810Z,156.00
2023-03-22T01:12:46.691Z,156.00
2023-03-22T01:13:49.721Z,156.00
2023-03-22T01:14:52.236Z,156.00
2023-03-22T01:15:54.927Z,156.00
2023-03-22T01:16:57.778Z,156.00
2023-03-22T01:18:00.880Z,156.00
2023-03-22T01:19:03.639Z,156.00
2023-03-22T01:20:07.292Z,156.00
2023-03-22T01:21:10.455Z,155.83
2023-03-22T01:22:12.997Z,155.00
2023-03-22T01:23:15.956Z,155.00
2023-03-22T01:24:18.550Z,155.00
2023-03-22T01:25:21.491Z,155.67
2023-03-22T01:26:23.953Z,155.17
2023-03-22T01:27:26.499Z,155.00
2023-03-22T01:28:29.657Z,155.00
2023-03-22T01:29:32.562Z,155.00
2023-03-22T01:30:35.433Z,154.83
2023-03-22T01:31:38.049Z,154.00
2023-03-22T01:32:40.807Z,154.00
2023-03-22T01:33:43.608Z,153.83
2023-03-22T01:34:46.139Z,153.00
2023-03-22T01:35:48.905Z,153.00
2023-03-22T01:36:51.595Z,152.50
2023-03-22T01:37:54.746Z,152.00
2023-03-22T01:38:57.556Z,152.00
2023-03-22T01:40:00.593Z,152.00
2023-03-22T01:41:03.735Z,152.00
2023-03-22T01:42:15.939Z,152.00
2023-03-22T01:43:18.887Z,152.00
2023-03-22T01:44:24.212Z,152.00
2023-03-22T01:45:39.492Z,152.50
2023-03-22T01:46:44.506Z,152.67
2023-03-22T01:48:17.658Z,153.00
2023-03-22T01:49:34.435Z,153.00
2023-03-22T01:50:39.657Z,152.00
2023-03-22T01:51:45.388Z,153.00
2023-03-22T01:52:56.721Z,153.00
2023-03-22T01:54:09.569Z,154.00
2023-03-22T01:55:13.108Z,153.17
2023-03-22T01:56:23.693Z,153.00
2023-03-22T01:57:26.685Z,153.00
2023-03-22T01:58:30.171Z,153.00
2023-03-22T01:59:36.844Z,153.00
2023-03-22T02:00:51.488Z,152.00
2023-03-22T02:02:20.349Z,152.00
2023-03-22T02:03:44.988Z,152.00
2023-03-22T02:04:57.843Z,151.33
2023-03-22T02:06:03.134Z,151.00
2023-03-22T02:07:10.276Z,151.00
2023-03-22T02:08:14.958Z,151.00
2023-03-22T02:09:44.011Z,151.00
2023-03-22T02:10:47.425Z,150.83
2023-03-22T02:12:06.039Z,150.00
2023-03-22T02:13:18.872Z,150.00
2023-03-22T02:14:46.825Z,149.33
2023-03-22T02:15:57.546Z,149.00
2023-03-22T02:17:28.730Z,148.50
2023-03-22T02:19:04.290Z,148.00
2023-03-22T02:20:10.901Z,147.83
2023-03-22T02:21:19.435Z,147.00
2023-03-22T02:22:46.542Z,147.00
2023-03-22T02:24:19.545Z,147.00
2023-03-22T02:25:54.299Z,147.00
2023-03-22T02:27:24.099Z,147.50
2023-03-22T02:28:33.581Z,147.33
2023-03-22T02:29:56.512Z,147.00
2023-03-22T02:31:10.669Z,146.67
2023-03-22T02:32:46.089Z,146.00
2023-03-22T02:34:23.729Z,146.00
2023-03-22T02:35:47.720Z,145.00
2023-03-22T02:37:11.527Z,145.83
2023-03-22T02:38:47.592Z,145.33
2023-03-22T02:40:07.594Z,145.00
2023-03-22T02:41:19.781Z,145.00
2023-03-22T02:42:27.524Z,145.00
2023-03-22T02:43:46.290Z,145.00
2023-03-22T02:45:09.780Z,145.00
2023-03-22T02:46:18.081Z,145.00
2023-03-22T02:47:34.306Z,145.00
2023-03-22T02:49:07.757Z,145.00
2023-03-22T02:50:13.234Z,144.50
2023-03-22T02:51:26.171Z,144.00
2023-03-22T02:52:40.375Z,143.67
2023-03-22T02:53:53.040Z,142.67
2023-03-22T02:55:22.742Z,143.00
2023-03-22T02:56:46.947Z,142.33
2023-03-22T02:58:03.106Z,142.00
2023-03-22T02:59:08.418Z,141.17
2023-03-22T03:00:16.811Z,141.00
2023-03-22T03:01:28.319Z,141.00
2023-03-22T03:02:33.430Z,140.33
2023-03-22T03:03:39.665Z,140.00
2023-03-22T03:04:49.977Z,139.33
2023-03-22T03:06:01.483Z,139.00
2023-03-22T03:07:12.086Z,139.00
2023-03-22T03:08:18.099Z,138.00
2023-03-22T03:09:21.767Z,138.00
2023-03-22T03:10:25.956Z,138.00
2023-03-22T03:11:29.062Z,138.00
2023-03-22T03:12:31.654Z,138.00
2023-03-22T03:13:34.126Z,137.67
2023-03-22T03:14:36.614Z,137.33
2023-03-22T03:15:43.956Z,137.00
2023-03-22T03:16:55.309Z,137.00
2023-03-22T03:18:07.268Z,137.00
2023-03-22T03:19:33.285Z,137.00
2023-03-22T03:20:49.479Z,137.00
2023-03-22T03:22:13.497Z,137.00
2023-03-22T03:23:33.990Z,137.00
2023-03-22T03:24:57.287Z,137.00
2023-03-22T03:26:33.407Z,136.50
2023-03-22T03:27:49.809Z,136.00
2023-03-22T03:28:57.988Z,136.00
2023-03-22T03:30:02.445Z,136.00
2023-03-22T03:31:29.387Z,136.00
2023-03-22T03:32:47.945Z,136.00
2023-03-22T03:34:10.636Z,135.67
2023-03-22T03:35:22.635Z,135.00
2023-03-22T03:36:27.348Z,135.00
2023-03-22T03:37:37.901Z,135.00
2023-03-22T03:38:48.520Z,134.00
2023-03-22T03:40:09.782Z,134.00
2023-03-22T03:41:24.087Z,134.00
2023-03-22T03:42:29.994Z,134.50
2023-03-22T03:43:34.763Z,135.00
2023-03-22T03:44:39.590Z,134.00
2023-03-22T03:45:42.683Z,134.00
2023-03-22T03:46:46.616Z,133.83
2023-03-22T03:47:56.881Z,133.00
2023-03-22T03:48:59.723Z,134.00
2023-03-22T03:50:04.354Z,134.00
2023-03-22T03:51:07.241Z,133.67
2023-03-22T03:52:09.903Z,133.00
2023-03-22T03:53:12.460Z,133.00
2023-03-22T03:54:15.414Z,133.00
2023-03-22T03:55:18.931Z,133.00
2023-03-22T03:56:21.433Z,133.00
2023-03-22T03:57:25.242Z,133.00
2023-03-22T03:58:30.488Z,133.00
2023-03-22T03:59:33.034Z,133.00
2023-03-22T04:00:40.867Z,132.83
2023-03-22T04:01:55.634Z,132.00
2023-03-22T04:03:06.329Z,132.00
2023-03-22T04:04:35.595Z,132.00
2023-03-22T04:05:40.071Z,131.83
2023-03-22T04:06:42.828Z,131.17
2023-03-22T04:07:49.685Z,131.00
2023-03-22T04:08:53.810Z,131.67
2023-03-22T04:10:00.446Z,131.33
2023-03-22T04:11:07.893Z,131.00
2023-03-22T04:12:10.857Z,130.67
2023-03-22T04:13:13.380Z,130.00
2023-03-22T04:14:16.019Z,130.00
2023-03-22T04:15:18.659Z,130.00
2023-03-22T04:16:26.256Z,129.17
2023-03-22T04:17:29.353Z,129.00
2023-03-22T04:18:32.195Z,129.00
2023-03-22T04:19:38.057Z,128.33
2023-03-22T04:20:41.805Z,128.00
2023-03-22T04:21:45.904Z,127.67
2023-03-22T04:22:49.122Z,127.00
2023-03-22T04:23:51.736Z,127.00
2023-03-22T04:24:54.342Z,127.00
2023-03-22T04:25:59.843Z,127.00
2023-03-22T04:27:13.705Z,127.00
2023-03-22T04:28:28.936Z,127.00
2023-03-22T04:29:32.237Z,127.00
2023-03-22T04:30:54.340Z,126.00
2023-03-22T04:32:23.282Z,126.00
2023-03-22T04:33:26.708Z,126.00
2023-03-22T04:34:53.152Z,126.00
2023-03-22T04:35:57.526Z,126.00
2023-03-22T04:37:08.036Z,126.17
2023-03-22T04:38:13.416Z,127.33
2023-03-22T04:39:16.587Z,128.67
2023-03-22T04:40:28.760Z,130.00
2023-03-22T04:41:37.807Z,130.00
2023-03-22T04:42:40.527Z,130.00
2023-03-22T04:43:50.999Z,130.00
2023-03-22T04:44:53.712Z,130.00
2023-03-22T04:45:58.386Z,130.00
2023-03-22T04:47:07.514Z,130.00
2023-03-22T04:48:11.273Z,130.00
2023-03-22T04:49:14.418Z,130.00
2023-03-22T04:50:18.094Z,130.00
2023-03-22T04:51:27.271Z,129.50
2023-03-22T04:52:54.219Z,130.00
2023-03-22T04:53:57.653Z,129.83
2023-03-22T04:55:00.165Z,129.00
2023-03-22T04:56:05.549Z,129.67
2023-03-22T04:57:08.187Z,130.00
2023-03-22T04:58:16.485Z,130.00
2023-03-22T04:59:20.405Z,130.00
2023-03-22T05:00:24.493Z,130.00
2023-03-22T05:01:28.535Z,130.00
2023-03-22T05:02:43.080Z,130.00
2023-03-22T05:03:53.646Z,130.00
2023-03-22T05:04:58.228Z,130.00
2023-03-22T05:06:11.461Z,130.17
2023-03-22T05:07:23.528Z,132.17
2023-03-22T05:08:31.562Z,134.00
2023-03-22T05:09:34.110Z,134.83
2023-03-22T05:10:40.599Z,135.00
2023-03-22T05:11:43.651Z,135.83
2023-03-22T05:13:03.297Z,135.17
2023-03-22T05:14:14.949Z,135.00
2023-03-22T05:15:17.611Z,135.00
2023-03-22T05:16:21.562Z,135.33
2023-03-22T05:17:26.957Z,136.00
2023-03-22T05:18:32.962Z,136.67
2023-03-22T05:19:35.626Z,137.50
2023-03-22T05:20:38.573Z,139.00
2023-03-22T05:21:58.093Z,139.00
2023-03-22T05:23:10.196Z,139.00
2023-03-22T05:24:13.919Z,139.00
2023-03-22T05:25:19.359Z,140.50
2023-03-22T05:26:24.455Z,144.00
2023-03-22T05:27:31.782Z,145.00
2023-03-22T05:29:05.357Z,145.00
2023-03-22T05:30:26.621Z,145.00
2023-03-22T05:31:38.426Z,144.00
2023-03-22T05:32:44.860Z,144.00
2023-03-22T05:33:56.055Z,144.83
2023-03-22T05:35:05.725Z,157.33
2023-03-22T05:36:13.430Z,161.50
2023-03-22T05:37:35.172Z,163.50
2023-03-22T05:38:39.315Z,160.67
2023-03-22T05:39:43.281Z,159.50
2023-03-22T05:40:49.253Z,159.00
2023-03-22T05:41:51.849Z,158.50
2023-03-22T05:42:54.820Z,157.67
2023-03-22T05:44:03.558Z,157.00
2023-03-22T05:45:06.706Z,156.67
2023-03-22T05:46:12.102Z,155.00
2023-03-22T05:47:25.916Z,154.00
2023-03-22T05:48:36.386Z,153.17
2023-03-22T05:49:39.373Z,153.00
2023-03-22T05:50:42.951Z,153.00
2023-03-22T05:51:45.851Z,152.67
2023-03-22T05:52:52.130Z,151.83
2023-03-22T05:53:57.388Z,151.00
2023-03-22T05:55:07.403Z,151.00
2023-03-22T05:56:13.920Z,151.83
2023-03-22T05:57:18.585Z,155.67
2023-03-22T05:58:21.067Z,159.33
2023-03-22T05:59:26.111Z,162.83
2023-03-22T06:00:32.092Z,167.67
2023-03-22T06:01:53.604Z,167.33
2023-03-22T06:03:03.569Z,166.33
2023-03-22T06:04:08.534Z,165.83
2023-03-22T06:05:23.673Z,165.00
2023-03-22T06:06:28.311Z,165.00
2023-03-22T06:07:41.979Z,164.00
2023-03-22T06:08:51.662Z,163.00
2023-03-22T06:09:54.211Z,162.67
2023-03-22T06:10:58.606Z,144.33
2023-03-22T06:12:01.812Z,103.33
2023-03-22T06:13:04.777Z,136.67
2023-03-22T06:14:09.520Z,139.67
2023-03-22T06:15:27.559Z,141.83
2023-03-22T06:16:41.660Z,143.00
2023-03-22T06:17:44.299Z,141.83
2023-03-22T06:18:50.479Z,139.33
2023-03-22T06:19:54.375Z,136.33
2023-03-22T06:20:57.569Z,135.00
2023-03-22T06:22:00.421Z,134.17
2023-03-22T06:23:03.224Z,133.00
2023-03-22T06:24:06.256Z,133.00
2023-03-22T06:25:10.989Z,134.00
2023-03-22T06:26:18.069Z,134.00
2023-03-22T06:27:22.151Z,134.00
2023-03-22T06:28:29.583Z,134.83
2023-03-22T06:29:32.923Z,135.50
2023-03-22T06:30:38.295Z,136.33
2023-03-22T06:31:59.791Z,137.00
2023-03-22T06:33:05.156Z,137.00
2023-03-22T06:34:10.672Z,136.50
2023-03-22T06:35:16.754Z,136.00
2023-03-22T06:36:21.450Z,136.00
2023-03-22T06:37:42.542Z,136.00
2023-03-22T06:38:45.013Z,135.33
2023-03-22T06:39:48.092Z,134.67
2023-03-22T06:40:50.892Z,134.00
2023-03-22T06:41:53.521Z,133.50
2023-03-22T06:42:56.714Z,133.00
2023-03-22T06:43:59.322Z,132.50
2023-03-22T06:45:33.252Z,131.83
2023-03-22T06:46:36.863Z,131.17
2023-03-22T06:47:47.918Z,131.00
2023-03-22T06:49:09.225Z,131.00
2023-03-22T06:50:12.238Z,131.00
2023-03-22T06:51:31.334Z,132.00
2023-03-22T06:52:33.961Z,132.00
2023-03-22T06:53:36.502Z,132.00
2023-03-22T06:54:39.851Z,132.33
2023-03-22T06:55:42.419Z,132.00
2023-03-22T06:56:53.691Z,132.00
2023-03-22T06:57:56.760Z,132.00
2023-03-22T06:58:59.339Z,132.00
2023-03-22T07:00:01.898Z,132.50
2023-03-22T07:01:04.742Z,132.67
2023-03-22T07:02:12.268Z,132.00
2023-03-22T07:03:17.204Z,132.00
2023-03-22T07:04:24.157Z,131.00
2023-03-22T07:05:26.723Z,131.00
2023-03-22T07:06:30.551Z,130.17
2023-03-22T07:07:33.043Z,130.00
2023-03-22T07:08:37.116Z,130.00
2023-03-22T07:09:41.016Z,130.00
2023-03-22T07:10:43.919Z,130.00
2023-03-22T07:11:46.763Z,129.17
2023-03-22T07:12:50.721Z,128.83
2023-03-22T07:13:54.650Z,128.00
2023-03-22T07:14:59.082Z,128.00
2023-03-22T07:16:18.700Z,127.17
2023-03-22T07:17:31.468Z,127.67
2023-03-22T07:18:34.156Z,127.00
2023-03-22T07:19:36.673Z,127.00
2023-03-22T07:20:43.764Z,127.00
2023-03-22T07:21:46.414Z,127.00
2023-03-22T07:22:51.041Z,127.00
2023-03-22T07:23:55.756Z,127.00
2023-03-22T07:25:01.853Z,127.83
2023-03-22T07:26:07.104Z,128.00
2023-03-22T07:27:11.676Z,128.00
2023-03-22T07:28:15.611Z,128.00
2023-03-22T07:29:18.149Z,128.00
2023-03-22T07:30:20.701Z,127.33
2023-03-22T07:31:23.826Z,127.00
2023-03-22T07:32:34.953Z,126.67
2023-03-22T07:33:44.227Z,126.00
2023-03-22T07:34:47.190Z,126.00
2023-03-22T07:35:52.005Z,126.00
2023-03-22T07:36:57.108Z,125.83
2023-03-22T07:38:00.991Z,125.00
2023-03-22T07:39:07.225Z,125.00
2023-03-22T07:40:13.447Z,125.00
2023-03-22T07:41:16.088Z,125.00
2023-03-22T07:42:31.816Z,125.50
2023-03-22T07:44:11.121Z,126.00
2023-03-22T07:45:23.212Z,126.17
2023-03-22T07:46:52.513Z,126.50
2023-03-22T07:48:02.600Z,127.00
2023-03-22T07:49:34.504Z,127.00
2023-03-22T07:50:43.953Z,127.00
2023-03-22T07:51:46.444Z,127.00
2023-03-22T07:52:49.546Z,127.00
2023-03-22T07:53:52.169Z,127.00
2023-03-22T07:54:55.482Z,127.00
2023-03-22T07:55:59.040Z,127.00
2023-03-22T07:57:01.990Z,127.00
2023-03-22T07:58:06.113Z,127.00
2023-03-22T07:59:08.858Z,127.00
2023-03-22T08:00:12.385Z,126.00
2023-03-22T08:01:50.003Z,126.00
2023-03-22T08:03:14.670Z,126.00
2023-03-22T08:04:35.470Z,125.00
2023-03-22T08:05:48.243Z,125.67
2023-03-22T08:06:51.591Z,126.00
2023-03-22T08:07:54.451Z,126.00
2023-03-22T08:08:57.224Z,126.83
2023-03-22T08:09:59.715Z,126.00
2023-03-22T08:11:02.774Z,125.67
2023-03-22T08:12:05.583Z,125.50
2023-03-22T08:13:08.481Z,125.50
2023-03-22T08:14:13.749Z,125.00
2023-03-22T08:15:16.473Z,124.33
2023-03-22T08:16:19.432Z,124.00
2023-03-22T08:17:22.328Z,123.33
2023-03-22T08:18:24.949Z,123.17
2023-03-22T08:19:28.438Z,123.00
2023-03-22T08:20:30.968Z,123.00
2023-03-22T08:21:38.021Z,123.00
2023-03-22T08:22:44.243Z,123.00
2023-03-22T08:24:01.843Z,123.00
2023-03-22T08:25:24.526Z,123.00
2023-03-22T08:26:29.070Z,123.00
2023-03-22T08:27:36.879Z,123.00
2023-03-22T08:28:39.574Z,123.00
2023-03-22T08:29:42.461Z,122.83
2023-03-22T08:30:47.654Z,122.00
2023-03-22T08:31:51.479Z,122.00
2023-03-22T08:32:54.060Z,122.00
2023-03-22T08:33:56.871Z,122.00
2023-03-22T08:34:59.512Z,122.00
2023-03-22T08:36:12.170Z,122.00
2023-03-22T08:37:21.568Z,122.00
2023-03-22T08:38:24.230Z,122.50
2023-03-22T08:39:29.003Z,123.00
2023-03-22T08:40:46.594Z,123.00
2023-03-22T08:41:49.426Z,122.50
2023-03-22T08:42:51.939Z,123.00
2023-03-22T08:43:54.657Z,123.33
2023-03-22T08:44:57.373Z,124.00
2023-03-22T08:46:02.951Z,124.00
2023-03-22T08:47:05.512Z,124.00
2023-03-22T08:48:08.125Z,123.00
2023-03-22T08:49:28.123Z,123.00
2023-03-22T08:50:39.847Z,122.67
2023-03-22T08:51:55.073Z,122.00
2023-03-22T08:53:29.845Z,122.00
2023-03-22T08:54:48.983Z,122.00
2023-03-22T08:56:10.112Z,121.50
2023-03-22T08:57:23.854Z,121.00
2023-03-22T08:58:46.698Z,120.00
2023-03-22T09:00:11.052Z,120.00
2023-03-22T09:01:21.261Z,120.00
2023-03-22T09:02:29.181Z,119.17
2023-03-22T09:03:33.037Z,120.00
2023-03-22T09:04:36.231Z,120.00
2023-03-22T09:05:39.177Z,119.67
2023-03-22T09:06:45.381Z,119.00
2023-03-22T09:07:52.611Z,119.00
2023-03-22T09:09:14.939Z,119.33
2023-03-22T09:10:19.555Z,120.67
2023-03-22T09:11:24.582Z,121.00
2023-03-22T09:12:27.684Z,121.00
2023-03-22T09:13:33.724Z,120.83
2023-03-22T09:14:38.945Z,120.00
2023-03-22T09:15:41.696Z,119.33
2023-03-22T09:16:51.877Z,118.50
2023-03-22T09:17:54.573Z,118.00
2023-03-22T09:18:58.646Z,118.00
2023-03-22T09:20:11.934Z,118.00
2023-03-22T09:21:17.134Z,118.00
2023-03-22T09:22:26.265Z,118.00
2023-03-22T09:23:30.399Z,117.00
2023-03-22T09:24:33.022Z,117.00
2023-03-22T09:25:38.327Z,117.00
2023-03-22T09:26:41.523Z,117.00
2023-03-22T09:27:44.111Z,117.00
2023-03-22T09:28:46.938Z,117.00
2023-03-22T09:29:50.318Z,117.00
2023-03-22T09:30:53.581Z,116.50
2023-03-22T09:31:56.404Z,116.00
2023-03-22T09:33:04.003Z,116.00
2023-03-22T09:34:06.730Z,116.00
2023-03-22T09:35:09.526Z,115.17
2023-03-22T09:36:20.634Z,115.00
2023-03-22T09:37:30.525Z,115.33
2023-03-22T09:38:35.749Z,116.00
2023-03-22T09:39:40.201Z,115.83
2023-03-22T09:41:00.391Z,115.00
2023-03-22T09:42:15.524Z,115.00
2023-03-22T09:43:19.922Z,114.33
2023-03-22T09:44:29.927Z,114.00
2023-03-22T09:45:39.823Z,114.67
2023-03-22T09:46:48.155Z,115.00
2023-03-22T09:47:56.548Z,115.00
2023-03-22T09:49:02.973Z,114.33
2023-03-22T09:50:39.887Z,114.00
2023-03-22T09:51:44.393Z,114.00
2023-03-22T09:52:47.879Z,114.00
2023-03-22T09:53:50.805Z,114.83
2023-03-22T09:54:53.515Z,115.00
2023-03-22T09:56:17.626Z,114.83
2023-03-22T09:57:32.773Z,114.00
2023-03-22T09:58:53.378Z,114.00
2023-03-22T10:00:38.670Z,114.83
2023-03-22T10:02:00.412Z,115.00
2023-03-22T10:03:09.768Z,115.00
2023-03-22T10:04:14.928Z,114.50
2023-03-22T10:05:35.283Z,114.00
2023-03-22T10:06:37.762Z,114.33
2023-03-22T10:08:01.856Z,114.00
2023-03-22T10:09:26.813Z,114.00
2023-03-22T10:10:30.419Z,114.00
2023-03-22T10:12:11.347Z,114.00
2023-03-22T10:13:16.514Z,114.00
2023-03-22T10:14:32.934Z,114.00
2023-03-22T10:15:42.521Z,114.00
2023-03-22T10:16:47.592Z,113.33
2023-03-22T10:17:53.932Z,113.00
2023-03-22T10:19:06.564Z,113.00
2023-03-22T10:20:19.116Z,113.00
2023-03-22T10:21:21.819Z,113.00
2023-03-22T10:22:33.711Z,113.00
2023-03-22T10:23:56.948Z,113.00
2023-03-22T10:25:00.909Z,113.00
2023-03-22T10:26:06.121Z,112.17
2023-03-22T10:27:20.548Z,112.00
2023-03-22T10:28:31.686Z,111.00
2023-03-22T10:29:45.745Z,111.00
2023-03-22T10:30:54.653Z,111.00
2023-03-22T10:32:13.913Z,111.00
2023-03-22T10:33:35.376Z,111.00
2023-03-22T10:34:37.907Z,111.00
2023-03-22T10:35:44.041Z,111.00
2023-03-22T10:36:48.167Z,111.50
2023-03-22T10:37:51.770Z,112.00
2023-03-22T10:39:04.077Z,112.00
2023-03-22T10:40:09.423Z,112.17
2023-03-22T10:41:18.550Z,113.00
2023-03-22T10:42:26.523Z,113.00
2023-03-22T10:43:42.356Z,113.50
2023-03-22T10:45:01.410Z,114.00
2023-03-22T10:46:08.192Z,114.17
2023-03-22T10:47:11.930Z,114.67
2023-03-22T10:48:23.372Z,115.17
2023-03-22T10:49:32.878Z,115.00
2023-03-22T10:50:39.354Z,115.83
2023-03-22T10:52:04.611Z,116.00
2023-03-22T10:53:25.409Z,116.00
2023-03-22T10:54:28.435Z,115.33
2023-03-22T10:55:30.931Z,115.00
2023-03-22T10:56:33.430Z,115.00
2023-03-22T10:57:35.908Z,114.67
2023-03-22T10:58:38.462Z,115.00
2023-03-22T10:59:51.224Z,115.00
2023-03-22T11:00:59.578Z,115.00
2023-03-22T11:02:02.259Z,115.33
2023-03-22T11:03:07.125Z,116.00
2023-03-22T11:04:15.057Z,116.00
2023-03-22T11:05:25.873Z,116.00
2023-03-22T11:06:32.958Z,116.00
2023-03-22T11:07:39.177Z,116.00
2023-03-22T11:08:48.914Z,116.33
2023-03-22T11:09:58.506Z,117.00
2023-03-22T11:11:01.203Z,117.50
2023-03-22T11:12:04.021Z,117.50
2023-03-22T11:13:09.660Z,118.00
2023-03-22T11:14:15.772Z,118.00
2023-03-22T11:15:26.852Z,118.00
2023-03-22T11:16:31.434Z,118.00
2023-03-22T11:17:37.728Z,118.00
2023-03-22T11:18:41.832Z,118.00
2023-03-22T11:19:55.293Z,117.17
2023-03-22T11:21:11.393Z,117.00
2023-03-22T11:22:41.274Z,117.00
2023-03-22T11:23:58.152Z,117.83
2023-03-22T11:25:01.596Z,118.00
2023-03-22T11:26:14.819Z,118.00
2023-03-22T11:27:26.326Z,118.00
2023-03-22T11:28:36.295Z,118.00
2023-03-22T11:29:47.992Z,118.00
2023-03-22T11:31:12.039Z,118.00
2023-03-22T11:32:38.405Z,117.00
2023-03-22T11:33:55.865Z,117.00
2023-03-22T11:35:13.592Z,117.00
2023-03-22T11:36:18.957Z,116.00
2023-03-22T11:37:22.463Z,116.00
2023-03-22T11:38:32.610Z,116.00
2023-03-22T11:39:35.086Z,116.17
2023-03-22T11:40:48.629Z,116.67
2023-03-22T11:41:52.584Z,117.00
2023-03-22T11:43:09.974Z,117.00
2023-03-22T11:44:16.736Z,117.00
2023-03-22T11:45:36.211Z,117.00
2023-03-22T11:46:40.154Z,117.00
2023-03-22T11:47:43.142Z,117.00
2023-03-22T11:48:48.595Z,116.00
2023-03-22T11:49:54.613Z,116.00
2023-03-22T11:51:25.790Z,116.00
2023-03-22T11:52:28.300Z,115.00
2023-03-22T11:53:35.582Z,115.00
2023-03-22T11:54:40.300Z,115.00
2023-03-22T11:55:43.765Z,114.50
2023-03-22T11:56:50.389Z,114.50
2023-03-22T11:57:55.979Z,115.00
2023-03-22T11:59:01.688Z,114.00
2023-03-22T12:00:26.896Z,114.00
2023-03-22T12:02:00.474Z,113.83
2023-03-22T12:03:10.078Z,113.33
2023-03-22T12:04:20.297Z,113.33
2023-03-22T12:05:27.345Z,114.00
2023-03-22T12:06:35.498Z,113.33
2023-03-22T12:07:41.202Z,113.00
2023-03-22T12:08:53.969Z,113.00
2023-03-22T12:10:21.262Z,113.00
2023-03-22T12:11:33.657Z,112.17
2023-03-22T12:12:43.063Z,112.00
2023-03-22T12:13:54.521Z,112.00
2023-03-22T12:15:21.116Z,112.00
2023-03-22T12:16:30.825Z,112.00
2023-03-22T12:17:48.739Z,112.00
2023-03-22T12:19:02.319Z,112.67
2023-03-22T12:20:31.525Z,113.00
2023-03-22T12:21:36.809Z,113.00
2023-03-22T12:22:45.715Z,113.00
2023-03-22T12:23:48.288Z,113.33
2023-03-22T12:24:50.847Z,114.00
2023-03-22T12:26:07.178Z,114.00
2023-03-22T12:27:30.758Z,114.00
2023-03-22T12:28:41.281Z,114.00
2023-03-22T12:29:52.601Z,114.00
2023-03-22T12:30:57.819Z,114.00
2023-03-22T12:32:09.802Z,114.67
2023-03-22T12:33:43.192Z,115.83
2023-03-22T12:34:50.889Z,117.00
2023-03-22T12:36:01.575Z,117.00
2023-03-22T12:37:09.297Z,117.00
2023-03-22T12:38:27.991Z,117.00
2023-03-22T12:40:08.520Z,117.00
2023-03-22T12:41:39.091Z,117.00
2023-03-22T12:42:55.464Z,117.50
2023-03-22T12:44:18.412Z,118.00
2023-03-22T12:45:26.470Z,118.00
2023-03-22T12:46:35.572Z,118.00
2023-03-22T12:47:51.442Z,118.00
2023-03-22T12:49:17.205Z,119.00
2023-03-22T12:50:21.751Z,119.00
2023-03-22T12:51:24.546Z,119.00
2023-03-22T12:52:37.697Z,119.00
2023-03-22T12:53:56.822Z,119.00
2023-03-22T12:55:01.813Z,119.00
2023-03-22T12:56:05.057Z,119.67
2023-03-22T12:57:09.552Z,120.00
2023-03-22T12:58:20.866Z,120.17
2023-03-22T12:59:28.937Z,121.00
2023-03-22T13:00:41.436Z,121.17
2023-03-22T13:02:01.453Z,122.00
2023-03-22T13:03:20.027Z,122.00
2023-03-22T13:04:27.537Z,123.00
2023-03-22T13:05:33.907Z,123.00
2023-03-22T13:06:45.489Z,123.00
2023-03-22T13:07:47.908Z,123.83
2023-03-22T13:09:13.157Z,124.50
2023-03-22T13:10:31.408Z,125.00
2023-03-22T13:11:34.071Z,125.17
2023-03-22T13:12:36.608Z,127.17
2023-03-22T13:13:44.902Z,129.00
2023-03-22T13:14:50.433Z,129.00
2023-03-22T13:15:55.662Z,129.00
2023-03-22T13:17:00.893Z,129.83
2023-03-22T13:18:04.939Z,130.00
2023-03-22T13:19:29.654Z,130.00
2023-03-22T13:20:34.070Z,130.50
2023-03-22T13:21:40.323Z,131.67
2023-03-22T13:22:45.862Z,132.00
2023-03-22T13:24:05.227Z,132.67
2023-03-22T13:25:13.972Z,132.67
2023-03-22T13:26:16.665Z,132.00
2023-03-22T13:27:19.167Z,132.00
2023-03-22T13:28:26.648Z,132.00
2023-03-22T13:29:38.894Z,132.83
2023-03-22T13:30:50.255Z,133.00
2023-03-22T13:31:58.170Z,133.00
2023-03-22T13:33:08.577Z,132.00
2023-03-22T13:34:36.210Z,132.00
2023-03-22T13:35:56.766Z,132.00
2023-03-22T13:37:01.629Z,132.00
2023-03-22T13:38:29.780Z,132.17
2023-03-22T13:39:34.752Z,132.50
2023-03-22T13:40:54.783Z,132.83
2023-03-22T13:42:16.886Z,133.00
2023-03-22T13:43:31.165Z,133.00
2023-03-22T13:44:39.713Z,133.00
2023-03-22T13:46:16.649Z,133.50
2023-03-22T13:47:37.498Z,133.00
2023-03-22T13:48:50.693Z,133.00
2023-03-22T13:50:02.108Z,133.33
2023-03-22T13:51:13.411Z,134.00
2023-03-22T13:52:39.551Z,134.00
2023-03-22T13:54:06.747Z,134.00
2023-03-22T13:55:42.516Z,133.33
2023-03-22T13:56:56.500Z,133.00
2023-03-22T13:58:00.324Z,132.83
2023-03-22T13:59:06.393Z,132.00
2023-03-22T14:00:19.716Z,132.00
2023-03-22T14:01:49.400Z,132.83
2023-03-22T14:02:52.367Z,132.33
2023-03-22T14:04:01.234Z,133.17
2023-03-22T14:05:15.200Z,134.00
2023-03-22T14:06:41.129Z,134.50
2023-03-22T14:07:54.612Z,134.00
2023-03-22T14:09:13.485Z,134.00
2023-03-22T14:10:28.283Z,134.00
2023-03-22T14:11:46.877Z,134.00
2023-03-22T14:13:02.370Z,134.00
2023-03-22T14:14:15.812Z,134.00
2023-03-22T14:15:23.736Z,134.00
2023-03-22T14:16:35.374Z,134.00
2023-03-22T14:17:58.199Z,134.00
2023-03-22T14:19:02.731Z,134.00
2023-03-22T14:20:10.698Z,134.00
2023-03-22T14:21:18.985Z,134.00
